Airfield :
LOGIN :

Register | Disclaimer

   EN    FR    IT 

 










Legend :    VFR   Marginal VFR   IFR   Intensive IFR   Very Intensive IFR
Visi :
Ceiling :
>= 8 km
>= 3000ft
5 to 8 km
1000 to 3000 ft
1500m to 5 km
500 to 1000 ft
800 to 1500m
200 to 500 ft
< 800m
< 200 ft
Symbols :   Thunderstorms  Fog  Heavy snow  Heavy precipitations  Wind > 20 kt
SIGMETs :     Misc.  Thunderstorms  Icing  Turbulence  Mountain Waves  Volcanic Ashes






- Airport Elevation : 297 ft
- IATA code : UIP


LFRQ - Quimper Pluguffan

CURRENT METAR :
  • 241300Z AUTO 30016KT 270V330 9999 BKN030/// BKN038/// BKN047/// ///TCU 11/06 Q1000 TEMPO 30020G40KT 3000 SHRA BKN020CB

EXPIRED METARs :
  • 241230Z AUTO 29011KT 9999 FEW023/// SCT056/// ///TCU 10/07 Q1000 TEMPO 30020G40KT 3000 SHRA BKN020CB
  • 241200Z AUTO 28010KT 9999 FEW026/// SCT049/// BKN130/// ///TCU 09/06 Q1000 TEMPO 30020G40KT 3000 SHRA BKN020CB
  • 241130Z AUTO 30015KT 9999 -DZ SCT027/// BKN044/// BKN052/// ///CB 08/06 Q1000 TEMPO 4000 SHRA BECMG 31015G30KT
  • 241100Z AUTO 32013G26KT 9999 BKN022/// BKN029/// OVC040/// ///CB 08/05 Q1000 TEMPO 4000 SHRA
  • 241030Z AUTO 30008KT 250V330 9999 -RA FEW025/// BKN032/// BKN047/// ///TCU 08/06 Q0999 TEMPO 4000 SHRA BKN030CB BECMG 31015G30KT
  • 241000Z AUTO 27013KT 9999 -RA FEW017/// BKN052/// BKN078/// ///CB 08/05 Q0999 TEMPO 3000 SHRA BECMG 31015G30KT
  • 240930Z AUTO 27009KT 9999 FEW035/// SCT043/// BKN100/// ///TCU 07/05 Q0999 TEMPO 3000 SHRA BKN030CB BECMG 31015G30KT
  • 240900Z AUTO 29014KT 250V320 9999 -RA FEW017/// SCT033/// BKN045/// ///CB 06/04 Q0999 TEMPO 3000 SHRA BKN013 BKN030CB BECMG 31015G30KT
  • 240830Z AUTO 28009KT 9999 FEW032/// SCT062/// BKN120/// ///CB 06/04 Q0998 TEMPO 3000 SHRA BKN013 BKN030CB BECMG 31015G30KT
  • 240800Z AUTO 28015KT 9999 -RA FEW020/// BKN032/// BKN039/// ///TCU 06/05 Q0998 TEMPO VRB20G45KT 1500 TSRAGS BKN013 BKN030CB

TAF TAF LFRQ
Valid from the 24 at 12:00 until the 25 at 12:00 UTC


241100Z 2412/2512 30015G30KT 9999 BKN030
TEMPO 2412/2416 3000 SHRA BKN020CB
PROB40
TEMPO 2412/2416 30020G40KT
PROB40
TEMPO 2416/2424 4000 SHRA BKN020TCU
BECMG 2417/2419 28010KT
BECMG 2419/2421 VRB05KT
TEMPO 2500/2508 2000 RA BKN008
BECMG 2500/2502 14010KT
PROB40
TEMPO 2502/2506 14015G30KT BKN003
TEMPO 2506/2509 BKN003
BECMG 2508/2510 24010KT
TEMPO 2508/2512 3000 SHRA BKN008 BKN015CB
TEMPO 2510/2512 24015G30KT



MET'MAP, your aeronautical weather chart ! - Copyright ORBIFLY December 2007 - Disclaimer

ORBIFLY MET'MAP TEAM :

Programming & Development : Alexandra Zaïnal
Original concept : Baudouin d'Aumeries
Technical & hardware support : Manuel Goepfert
Assistance : Marc-Olivier Méhu




SOURCES & CREDITS :

   NOAA